• Join FlightAware (Why Join?)
  • Login
  • US Flag 
12:35AM EDT


 

Airport Tracker/Info


-or-


 

Live Flight TrackerFlight Track Log ✈ LBQ792 ✈ 02-May-2013 ✈ KSYR - KROC

Flight Track Log - Related Links

Times and Time Zones

All times are in EDT time to prevent confusion due to time zone crossing. See the LBQ792 flight status page for this flight to view local times or setup timezone preferences in your user account.

Time Position Orientation Groundspeed Altitude Reporting Facility
EDT Latitude Longitude Course Direction KTS MPH feet Rate Location/Type
09:58PM 43.1261 -76.0761 46° Northeast 139 160 2,600  Level Boston Center
09:59PM 43.1494 -76.1258 303° West 173 199 4,000 1,440 Climbing Boston Center
10:00PM 43.1456 -76.1853 265° West 170 196 5,600 960 Climbing Boston Center
10:01PM 43.1450 -76.2650 269° West 204 235 6,000 180 Climbing Boston Center
10:02PM 43.1439 -76.3533 269° West 246 283 6,000  Level Boston Center
10:03PM 43.1428 -76.4444 269° West 240 276 6,000  Level Boston Center
10:04PM 43.1414 -76.5439 269° West 238 274 6,000  Level Boston Center
10:05PM 43.1400 -76.6378 269° West 238 274 6,000  Level Boston Center
10:06PM 43.1392 -76.6992 269° West 239 275 6,000  Level Cleveland Center
10:07PM 43.1339 -76.7936 266° West 237 273 6,000  Level Cleveland Center
10:08PM 43.1331 -76.8961 269° West 238 274 6,000  Level Cleveland Center
10:09PM 43.1333 -76.9728 270° West 238 274 6,000 -180 Level Cleveland Center
10:10PM 43.1281 -77.0700 266° West 242 278 5,700 -660 Descending Cleveland Center
10:11PM 43.1161 -77.1617 260° West 253 291 4,700 -900 Descending Cleveland Center
10:12PM 43.1022 -77.2561 259° West 253 291 3,900 -360 Descending Cleveland Center
10:13PM 43.0797 -77.3428 250° West 228 262 4,000 -240 Climbing Cleveland Center
10:14PM 43.0611 -77.4289 254° West 235 270 3,500 -720 Descending Cleveland Center
10:15PM 43.0367 -77.5239 251° West 251 289 2,500 -480 Descending Cleveland Center
10:16PM 43.0222 -77.6097 257° West 222 255 2,500 -240 Level Cleveland Center
10:17PM 43.0158 -77.6811 263° West 145 167 2,100 -360 Descending Cleveland Center
10:18PM 43.0436 -77.7139 319° Northwest 143 165 1,800 -480 Descending Cleveland Center
10:19PM 43.0789 -77.7067 North 174 200 1,300 -660 Descending Cleveland Center
10:21PM 43.1167 -77.6667 North  Level FlightAware Approximate